Livona, North Dakota
Current Conditions -  °F | °C
As of 10:52 AM on Friday 24 Oct 2014 (Local Time) from KBIS Reporting Station
Clear Clear  
Wind Chill: 59°   Ceiling: Unl
Heat Index: 59°   Visibility: 10mi
Dew Point: 38°   Wind: 7mph
Humidity: 46%   Direction: 270°W
Pressure: 29.89"   Gusts: NA
Location:  46.7287°N, 100.616°W
Report Text: KBIS 241552Z 27006KT 10SM CLR 15/03 A2989 RMK AO2 SLP125 T01500033
Loading
Personal Weather Stations






























Interactive Weather Map
Tropical Storm Tracking
New forecast layout! Learn more

10-Day Weather Forecast

Advertisements
Track Severe Weather on mobile